createdAt,value
2022-11-27T00:01:49.843Z,4.75
2022-11-27T00:04:35.140Z,4.38
2022-11-27T00:07:20.650Z,4.75
2022-11-27T00:10:06.983Z,4.55
2022-11-27T00:12:52.215Z,4.65
2022-11-27T00:15:37.828Z,4.50
2022-11-27T00:18:23.287Z,4.72
2022-11-27T00:21:12.439Z,4.93
2022-11-27T00:24:00.168Z,4.43
2022-11-27T00:26:46.695Z,4.97
2022-11-27T00:29:32.516Z,5.40
2022-11-27T00:32:17.838Z,4.40
2022-11-27T00:35:03.304Z,4.45
2022-11-27T00:37:48.579Z,4.80
2022-11-27T00:40:34.504Z,4.30
2022-11-27T00:43:19.529Z,4.80
2022-11-27T00:46:05.554Z,4.32
2022-11-27T00:48:50.821Z,4.20
2022-11-27T00:51:36.406Z,4.30
2022-11-27T00:54:22.838Z,4.50
2022-11-27T00:57:08.491Z,4.40
2022-11-27T00:59:53.931Z,4.28
2022-11-27T01:02:39.412Z,4.07
2022-11-27T01:05:24.783Z,4.45
2022-11-27T01:08:10.282Z,4.22
2022-11-27T01:10:57.748Z,4.35
2022-11-27T01:13:43.807Z,4.20
2022-11-27T01:16:32.339Z,4.10
2022-11-27T01:19:17.680Z,4.00
2022-11-27T01:22:03.417Z,3.83
2022-11-27T01:24:48.861Z,3.67
2022-11-27T01:27:34.328Z,4.18
2022-11-27T01:30:19.678Z,3.70
2022-11-27T01:33:05.178Z,4.13
2022-11-27T01:35:58.653Z,3.47
2022-11-27T01:38:43.831Z,4.32
2022-11-27T01:41:32.703Z,3.95
2022-11-27T01:44:24.227Z,3.33
2022-11-27T01:47:17.820Z,3.30
2022-11-27T01:50:16.794Z,3.58
2022-11-27T01:53:13.941Z,3.30
2022-11-27T01:56:01.275Z,3.80
2022-11-27T01:58:46.786Z,3.53
2022-11-27T02:01:32.054Z,3.80
2022-11-27T02:04:18.638Z,3.75
2022-11-27T02:07:04.068Z,3.63
2022-11-27T02:09:49.874Z,3.70
2022-11-27T02:12:57.398Z,3.40
2022-11-27T02:15:53.211Z,4.10
2022-11-27T02:18:52.711Z,3.78
2022-11-27T02:22:05.231Z,3.30
2022-11-27T02:25:02.784Z,4.60
2022-11-27T02:28:09.316Z,4.03
2022-11-27T02:31:10.064Z,3.45
2022-11-27T02:34:01.117Z,3.95
2022-11-27T02:36:53.346Z,3.30
2022-11-27T02:40:01.472Z,3.40
2022-11-27T02:42:56.639Z,3.60
2022-11-27T02:45:44.874Z,3.63
2022-11-27T02:48:40.774Z,3.58
2022-11-27T02:51:33.702Z,3.25
2022-11-27T02:54:24.951Z,3.60
2022-11-27T02:57:12.904Z,3.60
2022-11-27T02:59:58.939Z,3.67
2022-11-27T03:02:50.269Z,3.08
2022-11-27T03:05:40.748Z,3.03
2022-11-27T03:08:33.343Z,2.80
2022-11-27T03:11:18.656Z,3.53
2022-11-27T03:14:08.300Z,2.97
2022-11-27T03:17:12.035Z,2.90
2022-11-27T03:20:08.859Z,2.85
2022-11-27T03:22:55.283Z,3.17
2022-11-27T03:25:40.524Z,3.30
2022-11-27T03:28:28.439Z,3.25
2022-11-27T03:31:14.172Z,2.90
2022-11-27T03:33:59.484Z,2.63
2022-11-27T03:36:45.868Z,3.00
2022-11-27T03:39:32.244Z,3.50
2022-11-27T03:42:40.318Z,3.20
2022-11-27T03:45:38.610Z,2.90
2022-11-27T03:48:38.243Z,3.30
2022-11-27T03:51:50.011Z,3.08
2022-11-27T03:54:51.490Z,2.92
2022-11-27T03:57:59.428Z,2.80
2022-11-27T04:00:47.574Z,2.50
2022-11-27T04:03:33.207Z,2.67
2022-11-27T04:06:18.556Z,2.70
2022-11-27T04:09:04.401Z,2.33
2022-11-27T04:11:50.146Z,2.80
2022-11-27T04:14:35.438Z,2.50
2022-11-27T04:17:20.843Z,2.60
2022-11-27T04:20:06.913Z,2.72
2022-11-27T04:22:52.426Z,3.03
2022-11-27T04:25:37.957Z,2.58
2022-11-27T04:28:23.431Z,2.45
2022-11-27T04:31:09.175Z,2.63
2022-11-27T04:33:54.196Z,2.38
2022-11-27T04:36:39.859Z,2.47
2022-11-27T04:39:25.090Z,2.47
2022-11-27T04:42:10.317Z,2.40
2022-11-27T04:44:55.806Z,2.70
2022-11-27T04:47:41.408Z,2.40
2022-11-27T04:50:27.014Z,2.00
2022-11-27T04:53:12.063Z,2.40
2022-11-27T04:55:57.445Z,2.53
2022-11-27T04:58:42.936Z,2.20
2022-11-27T05:01:28.461Z,2.38
2022-11-27T05:04:13.819Z,2.65
2022-11-27T05:06:59.311Z,2.30
2022-11-27T05:09:44.659Z,2.30
2022-11-27T05:12:30.220Z,2.63
2022-11-27T05:15:15.524Z,2.40
2022-11-27T05:18:01.041Z,2.60
2022-11-27T05:20:46.394Z,2.50
2022-11-27T05:23:32.701Z,2.72
2022-11-27T05:26:17.940Z,2.53
2022-11-27T05:29:03.798Z,2.55
2022-11-27T05:31:49.301Z,2.20
2022-11-27T05:34:35.002Z,3.17
2022-11-27T05:37:20.264Z,2.70
2022-11-27T05:40:06.717Z,2.72
2022-11-27T05:42:52.071Z,2.35
2022-11-27T05:45:37.958Z,2.97
2022-11-27T05:48:23.157Z,2.80
2022-11-27T05:51:09.003Z,2.85
2022-11-27T05:53:54.294Z,2.90
2022-11-27T05:56:39.755Z,2.80
2022-11-27T05:59:24.945Z,2.50
2022-11-27T06:02:12.851Z,2.80
2022-11-27T06:05:01.749Z,2.70
2022-11-27T06:07:47.495Z,3.13
2022-11-27T06:10:33.228Z,2.88
2022-11-27T06:13:18.752Z,2.83
2022-11-27T06:16:10.717Z,2.90
2022-11-27T06:18:56.309Z,2.70
2022-11-27T06:21:41.655Z,3.00
2022-11-27T06:24:27.833Z,2.80
2022-11-27T06:27:12.947Z,2.72
2022-11-27T06:29:58.343Z,2.90
2022-11-27T06:32:43.862Z,2.90
2022-11-27T06:35:29.231Z,3.22
2022-11-27T06:38:14.543Z,3.75
2022-11-27T06:41:08.910Z,3.00
2022-11-27T06:43:57.336Z,3.00
2022-11-27T06:46:42.752Z,2.85
2022-11-27T06:49:28.209Z,2.83
2022-11-27T06:52:13.746Z,3.13
2022-11-27T06:54:59.147Z,3.00
2022-11-27T06:57:44.571Z,3.20
2022-11-27T07:00:29.987Z,3.00
2022-11-27T07:03:15.756Z,2.97
2022-11-27T07:06:03.605Z,2.72
2022-11-27T07:08:50.912Z,3.10
2022-11-27T07:11:36.641Z,2.88
2022-11-27T07:14:21.899Z,3.50
2022-11-27T07:17:07.267Z,2.83
2022-11-27T07:19:53.013Z,2.80
2022-11-27T07:22:38.266Z,2.90
2022-11-27T07:25:23.958Z,3.03
2022-11-27T07:28:09.371Z,3.00
2022-11-27T07:30:59.230Z,2.90
2022-11-27T07:33:44.651Z,2.60
2022-11-27T07:36:31.139Z,3.20
2022-11-27T07:39:22.242Z,3.05
2022-11-27T07:45:24.965Z,2.55
2022-11-27T07:48:10.481Z,2.80
2022-11-27T07:50:55.934Z,2.78
2022-11-27T07:53:42.436Z,2.67
2022-11-27T07:56:27.851Z,2.80
2022-11-27T07:59:13.212Z,2.92
2022-11-27T08:01:58.492Z,2.85
2022-11-27T08:04:44.445Z,2.85
2022-11-27T08:07:30.756Z,2.67
2022-11-27T08:10:16.562Z,2.50
2022-11-27T08:13:01.818Z,2.65
2022-11-27T08:15:48.232Z,2.55
2022-11-27T08:18:33.445Z,2.83
2022-11-27T08:21:19.658Z,2.67
2022-11-27T08:24:05.045Z,2.78
2022-11-27T08:26:50.293Z,2.60
2022-11-27T08:29:36.444Z,2.40
2022-11-27T08:32:21.588Z,2.63
2022-11-27T08:35:07.726Z,2.53
2022-11-27T08:37:55.207Z,2.65
2022-11-27T08:40:40.675Z,2.40
2022-11-27T08:43:26.966Z,2.22
2022-11-27T08:46:12.766Z,2.72
2022-11-27T08:48:59.435Z,2.40
2022-11-27T08:51:44.700Z,2.60
2022-11-27T08:54:30.086Z,2.67
2022-11-27T08:57:16.687Z,2.63
2022-11-27T09:00:02.102Z,2.95
2022-11-27T09:02:47.552Z,2.33
2022-11-27T09:05:33.780Z,3.03
2022-11-27T09:08:21.302Z,2.58
2022-11-27T09:11:08.007Z,2.60
2022-11-27T09:13:53.601Z,3.08
2022-11-27T09:16:39.139Z,3.03
2022-11-27T09:19:25.895Z,2.88
2022-11-27T09:22:11.695Z,2.80
2022-11-27T09:24:56.755Z,2.88
2022-11-27T09:27:42.400Z,3.28
2022-11-27T09:30:27.619Z,3.55
2022-11-27T09:33:13.155Z,3.00
2022-11-27T09:35:58.725Z,3.72
2022-11-27T09:38:44.664Z,3.10
2022-11-27T09:41:51.347Z,3.33
2022-11-27T09:44:50.463Z,3.70
2022-11-27T09:47:42.819Z,2.85
2022-11-27T09:53:28.931Z,3.85
2022-11-27T09:56:16.949Z,4.50
2022-11-27T09:59:03.784Z,3.30
2022-11-27T10:01:51.241Z,3.45
2022-11-27T10:04:51.254Z,3.78
2022-11-27T10:08:06.366Z,3.90
2022-11-27T10:11:02.154Z,3.67
2022-11-27T10:13:55.126Z,4.32
2022-11-27T10:17:02.269Z,3.50
2022-11-27T10:20:11.956Z,3.58
2022-11-27T10:23:14.832Z,3.35
2022-11-27T10:26:16.736Z,3.28
2022-11-27T10:29:30.458Z,3.30
2022-11-27T10:32:52.891Z,4.18
2022-11-27T10:35:28.132Z,4.00
2022-11-27T10:38:17.659Z,3.60
2022-11-27T10:41:18.666Z,3.80
2022-11-27T10:44:32.669Z,3.60
2022-11-27T10:47:22.712Z,3.90
2022-11-27T10:50:18.959Z,3.70
2022-11-27T10:53:08.042Z,3.80
2022-11-27T10:55:53.802Z,4.28
2022-11-27T10:58:46.782Z,3.70
2022-11-27T11:02:03.458Z,3.53
2022-11-27T11:05:09.207Z,3.80
2022-11-27T11:08:16.275Z,3.42
2022-11-27T11:11:03.927Z,3.70
2022-11-27T11:13:50.225Z,3.65
2022-11-27T11:16:43.846Z,3.78
2022-11-27T11:19:35.577Z,3.60
2022-11-27T11:22:21.439Z,3.93
2022-11-27T11:25:17.967Z,3.88
2022-11-27T11:28:03.335Z,3.70
2022-11-27T11:30:56.165Z,4.00
2022-11-27T11:36:35.833Z,3.47
2022-11-27T11:39:27.583Z,3.70
2022-11-27T11:42:22.670Z,4.03
2022-11-27T11:45:11.072Z,3.90
2022-11-27T11:47:59.404Z,3.22
2022-11-27T11:50:51.704Z,3.75
2022-11-27T11:53:45.620Z,3.78
2022-11-27T11:56:35.177Z,3.53
2022-11-27T11:59:50.289Z,3.38
2022-11-27T12:03:13.528Z,3.22
2022-11-27T12:06:04.919Z,3.35
2022-11-27T12:09:27.405Z,3.28
2022-11-27T12:12:21.626Z,3.00
2022-11-27T12:15:30.463Z,3.50
2022-11-27T12:18:30.332Z,3.25
2022-11-27T12:21:21.430Z,3.80
2022-11-27T12:24:45.753Z,3.72
2022-11-27T12:28:18.736Z,4.00
2022-11-27T12:31:46.091Z,3.60
2022-11-27T12:35:12.068Z,3.85
2022-11-27T12:38:30.875Z,3.20
2022-11-27T12:41:46.370Z,3.70
2022-11-27T12:45:04.300Z,3.85
2022-11-27T12:47:56.655Z,3.90
2022-11-27T12:50:45.788Z,3.90
2022-11-27T12:53:45.161Z,4.00
2022-11-27T12:56:37.818Z,4.10
2022-11-27T12:59:33.586Z,3.58
2022-11-27T13:02:29.006Z,4.05
2022-11-27T13:05:43.591Z,4.43
2022-11-27T13:08:57.131Z,4.07
2022-11-27T13:11:43.944Z,4.30
2022-11-27T13:14:32.122Z,4.53
2022-11-27T13:17:17.986Z,4.13
2022-11-27T13:20:15.491Z,4.28
2022-11-27T13:23:00.895Z,4.03
2022-11-27T13:25:51.418Z,3.72
2022-11-27T13:28:39.819Z,3.55
2022-11-27T13:31:35.990Z,3.70
2022-11-27T13:34:24.242Z,3.88
2022-11-27T13:37:20.802Z,3.58
2022-11-27T13:40:20.885Z,3.80
2022-11-27T13:43:20.142Z,3.38
2022-11-27T13:46:17.215Z,3.40
2022-11-27T13:49:05.568Z,3.90
2022-11-27T13:51:50.672Z,3.50
2022-11-27T13:54:36.699Z,3.58
2022-11-27T13:57:22.795Z,4.03
2022-11-27T14:00:16.114Z,3.40
2022-11-27T14:03:02.411Z,3.58
2022-11-27T14:05:47.909Z,4.00
2022-11-27T14:08:36.327Z,3.38
2022-11-27T14:11:44.487Z,3.30
2022-11-27T14:14:30.814Z,3.33
2022-11-27T14:17:33.664Z,3.70
2022-11-27T14:23:12.733Z,3.50
2022-11-27T14:26:15.382Z,4.47
2022-11-27T14:29:01.114Z,3.70
2022-11-27T14:31:57.306Z,4.07
2022-11-27T14:34:43.488Z,4.22
2022-11-27T14:37:29.014Z,3.95
2022-11-27T14:40:27.173Z,4.18
2022-11-27T14:43:18.118Z,3.97
2022-11-27T14:46:05.764Z,4.03
2022-11-27T14:48:55.794Z,4.15
2022-11-27T14:51:43.121Z,3.75
2022-11-27T14:54:40.347Z,4.07
2022-11-27T14:57:27.816Z,4.03
2022-11-27T15:00:32.119Z,3.88
2022-11-27T15:03:18.679Z,4.43
2022-11-27T15:06:07.477Z,3.53
2022-11-27T15:09:15.977Z,3.60
2022-11-27T15:12:20.187Z,4.15
2022-11-27T15:15:10.296Z,4.05
2022-11-27T15:17:58.921Z,4.43
2022-11-27T15:20:46.210Z,4.80
2022-11-27T15:23:34.277Z,4.43
2022-11-27T15:26:35.463Z,4.05
2022-11-27T15:29:29.549Z,4.07
2022-11-27T15:32:26.459Z,4.25
2022-11-27T15:35:21.082Z,4.35
2022-11-27T15:38:10.876Z,4.53
2022-11-27T15:41:00.928Z,4.60
2022-11-27T15:43:46.370Z,4.25
2022-11-27T15:46:35.141Z,4.75
2022-11-27T15:49:20.394Z,5.05
2022-11-27T15:52:05.714Z,5.00
2022-11-27T15:54:51.276Z,4.43
2022-11-27T15:57:36.780Z,4.90
2022-11-27T16:00:22.434Z,4.82
2022-11-27T16:03:07.564Z,4.57
2022-11-27T16:05:53.153Z,4.95
2022-11-27T16:08:38.608Z,5.47
2022-11-27T16:11:25.580Z,5.40
2022-11-27T16:14:11.670Z,4.85
2022-11-27T16:16:57.386Z,5.03
2022-11-27T16:19:43.072Z,4.93
2022-11-27T16:22:28.541Z,5.22
2022-11-27T16:25:14.087Z,4.82
2022-11-27T16:28:03.097Z,4.82
2022-11-27T16:30:48.702Z,5.20
2022-11-27T16:33:34.243Z,5.20
2022-11-27T16:36:21.715Z,5.13
2022-11-27T16:39:07.088Z,6.00
2022-11-27T16:41:52.588Z,8.23
2022-11-27T16:44:38.874Z,8.23
2022-11-27T16:47:30.566Z,6.90
2022-11-27T16:50:20.115Z,7.22
2022-11-27T16:53:05.728Z,6.15
2022-11-27T16:55:52.385Z,5.95
2022-11-27T16:58:40.826Z,5.82
2022-11-27T17:01:29.374Z,6.70
2022-11-27T17:04:18.653Z,6.20
2022-11-27T17:07:04.505Z,5.93
2022-11-27T17:09:49.626Z,5.90
2022-11-27T17:12:35.201Z,5.57
2022-11-27T17:15:21.083Z,6.28
2022-11-27T17:18:06.833Z,6.10
2022-11-27T17:20:52.508Z,6.10
2022-11-27T17:23:38.150Z,6.80
2022-11-27T17:26:24.973Z,6.82
2022-11-27T17:29:16.251Z,6.13
2022-11-27T17:32:02.196Z,6.38
2022-11-27T17:34:48.709Z,6.32
2022-11-27T17:37:34.267Z,6.47
2022-11-27T17:40:19.688Z,6.13
2022-11-27T17:43:05.185Z,6.30
2022-11-27T17:45:50.710Z,6.10
2022-11-27T17:48:36.589Z,6.50
2022-11-27T17:51:22.608Z,6.20
2022-11-27T17:54:08.260Z,6.40
2022-11-27T17:56:54.051Z,6.65
2022-11-27T17:59:39.634Z,7.18
2022-11-27T18:02:26.016Z,6.05
2022-11-27T18:05:11.231Z,6.82
2022-11-27T18:07:57.578Z,6.20
2022-11-27T18:10:42.956Z,6.28
2022-11-27T18:13:32.317Z,6.70
2022-11-27T18:16:24.524Z,7.00
2022-11-27T18:19:11.309Z,6.68
2022-11-27T18:21:56.772Z,6.35
2022-11-27T18:24:42.470Z,6.50
2022-11-27T18:27:27.977Z,6.78
2022-11-27T18:30:13.867Z,6.18
2022-11-27T18:32:59.516Z,6.80
2022-11-27T18:35:44.898Z,6.07
2022-11-27T18:38:32.177Z,6.82
2022-11-27T18:41:20.921Z,7.07
2022-11-27T18:44:06.562Z,7.88
2022-11-27T18:46:51.935Z,8.48
2022-11-27T18:49:38.976Z,7.40
2022-11-27T18:52:25.186Z,7.05
2022-11-27T18:55:10.769Z,6.35
2022-11-27T18:57:56.380Z,6.68
2022-11-27T19:00:42.343Z,6.80
2022-11-27T19:03:28.095Z,7.03
2022-11-27T19:06:15.724Z,7.03
2022-11-27T19:09:01.555Z,7.20
2022-11-27T19:11:47.072Z,7.13
2022-11-27T19:14:32.584Z,6.90
2022-11-27T19:17:18.699Z,7.93
2022-11-27T19:20:06.717Z,7.50
2022-11-27T19:22:52.386Z,7.97
2022-11-27T19:25:39.882Z,8.32
2022-11-27T19:28:25.388Z,8.73
2022-11-27T19:31:13.416Z,8.20
2022-11-27T19:34:01.011Z,8.77
2022-11-27T19:36:46.681Z,8.20
2022-11-27T19:39:32.114Z,8.20
2022-11-27T19:42:17.429Z,8.98
2022-11-27T19:45:02.890Z,8.02
2022-11-27T19:47:48.382Z,8.82
2022-11-27T19:50:33.804Z,8.63
2022-11-27T19:53:19.705Z,8.68
2022-11-27T19:56:06.614Z,9.20
2022-11-27T19:58:52.371Z,9.23
2022-11-27T20:01:40.292Z,8.93
2022-11-27T20:04:25.687Z,8.52
2022-11-27T20:07:11.239Z,8.27
2022-11-27T20:09:57.483Z,9.25
2022-11-27T20:12:43.431Z,8.95
2022-11-27T20:15:29.544Z,8.35
2022-11-27T20:18:15.764Z,8.73
2022-11-27T20:21:09.869Z,8.68
2022-11-27T20:23:56.864Z,8.93
2022-11-27T20:26:43.235Z,8.63
2022-11-27T20:29:29.071Z,8.85
2022-11-27T20:32:14.489Z,8.80
2022-11-27T20:34:59.836Z,8.50
2022-11-27T20:37:45.528Z,8.90
2022-11-27T20:40:31.118Z,8.50
2022-11-27T20:43:16.532Z,8.15
2022-11-27T20:46:03.181Z,8.02
2022-11-27T20:48:50.314Z,8.15
2022-11-27T20:51:36.646Z,8.73
2022-11-27T20:54:26.215Z,8.20
2022-11-27T20:57:14.184Z,8.18
2022-11-27T20:59:59.693Z,8.20
2022-11-27T21:02:45.494Z,9.32
2022-11-27T21:05:31.483Z,8.95
2022-11-27T21:08:17.005Z,8.80
2022-11-27T21:11:27.455Z,9.68
2022-11-27T21:14:14.846Z,9.82
2022-11-27T21:17:05.126Z,9.25
2022-11-27T21:19:52.879Z,9.30
2022-11-27T21:22:42.414Z,9.60
2022-11-27T21:25:28.264Z,9.90
2022-11-27T21:28:13.782Z,9.63
2022-11-27T21:31:16.962Z,9.40
2022-11-27T21:34:03.967Z,10.40
2022-11-27T21:36:49.404Z,9.85
2022-11-27T21:39:35.801Z,10.18
2022-11-27T21:42:22.202Z,10.73
2022-11-27T21:45:08.082Z,10.32
2022-11-27T21:47:53.534Z,10.30
2022-11-27T21:50:39.378Z,10.43
2022-11-27T21:53:24.814Z,9.95
2022-11-27T21:56:13.716Z,10.52
2022-11-27T21:58:59.342Z,10.10
2022-11-27T22:01:45.488Z,10.38
2022-11-27T22:04:30.879Z,9.98
2022-11-27T22:07:16.489Z,10.52
2022-11-27T22:10:01.880Z,10.85
2022-11-27T22:12:47.550Z,11.18
2022-11-27T22:15:36.098Z,10.73
2022-11-27T22:18:21.721Z,11.02
2022-11-27T22:21:09.430Z,12.30
2022-11-27T22:23:54.964Z,11.55
2022-11-27T22:26:40.746Z,10.82
2022-11-27T22:29:26.423Z,10.50
2022-11-27T22:32:11.926Z,11.23
2022-11-27T22:34:57.679Z,10.07
2022-11-27T22:37:43.170Z,10.23
2022-11-27T22:40:28.712Z,10.85
2022-11-27T22:43:14.426Z,11.13
2022-11-27T22:45:59.882Z,10.55
2022-11-27T22:48:45.776Z,11.43
2022-11-27T22:51:33.111Z,10.60
2022-11-27T22:54:18.780Z,9.95
2022-11-27T22:57:04.224Z,10.70
2022-11-27T22:59:49.699Z,10.98
2022-11-27T23:02:37.862Z,11.13
2022-11-27T23:05:23.597Z,11.00
2022-11-27T23:08:09.255Z,11.43
2022-11-27T23:10:54.427Z,10.45
2022-11-27T23:13:42.833Z,10.50
2022-11-27T23:16:31.871Z,9.95
2022-11-27T23:19:17.324Z,9.50
2022-11-27T23:22:03.020Z,10.20
2022-11-27T23:24:48.775Z,9.30
2022-11-27T23:27:34.246Z,10.77
2022-11-27T23:30:19.924Z,12.43
2022-11-27T23:33:05.277Z,12.30
2022-11-27T23:36:00.557Z,11.95
2022-11-27T23:38:45.802Z,11.50
2022-11-27T23:41:31.472Z,12.57
2022-11-27T23:44:17.189Z,12.57
2022-11-27T23:47:02.214Z,11.57
2022-11-27T23:49:47.615Z,11.93
2022-11-27T23:52:32.926Z,10.82
2022-11-27T23:55:18.362Z,11.63
2022-11-27T23:58:03.848Z,11.20
